2026/08/27

Sensor Date Temp./Hum.
h3-hermonville 27-08-2026 - 23:59 19.5°C / 91%
h4-hermonville 27-08-2026 - 23:58 21.2°C / 81.5%
h1-hermonville 27-08-2026 - 23:53 20.2°C / 88.5%
h2-hermonville 27-08-2026 - 23:53 19.9°C / 90.5%
h3-hermonville 27-08-2026 - 23:49 19.4°C / 91%
h4-hermonville 27-08-2026 - 23:48 21.4°C / 81%
h1-hermonville 27-08-2026 - 23:43 20.3°C / 88%
h2-hermonville 27-08-2026 - 23:43 19.9°C / 90%
h3-hermonville 27-08-2026 - 23:39 19.4°C / 90%
h4-hermonville 27-08-2026 - 23:38 21°C / 82.5%
h1-hermonville 27-08-2026 - 23:33 20.2°C / 88%
h2-hermonville 27-08-2026 - 23:33 20.1°C / 89.5%
h3-hermonville 27-08-2026 - 23:29 19.7°C / 89.5%
h1-hermonville 27-08-2026 - 23:23 20.1°C / 89%
h2-hermonville 27-08-2026 - 23:23 20.2°C / 90%
h3-hermonville 27-08-2026 - 23:19 19.8°C / 89%
h1-hermonville 27-08-2026 - 23:13 20°C / 91%
h2-hermonville 27-08-2026 - 23:13 20.1°C / 89.5%
h3-hermonville 27-08-2026 - 23:09 20.1°C / 88.5%
h4-hermonville 27-08-2026 - 23:08 21.1°C / 82.5%
h1-hermonville 27-08-2026 - 23:03 19.7°C / 92%
h2-hermonville 27-08-2026 - 23:03 20.4°C / 89%
h3-hermonville 27-08-2026 - 22:59 20.3°C / 88%
h4-hermonville 27-08-2026 - 22:58 21.1°C / 83%
h1-hermonville 27-08-2026 - 22:53 19.8°C / 92%
h2-hermonville 27-08-2026 - 22:53 20.5°C / 88.5%
h3-hermonville 27-08-2026 - 22:49 20.7°C / 86%
h4-hermonville 27-08-2026 - 22:48 20.8°C / 84%
h1-hermonville 27-08-2026 - 22:43 19.5°C / 93%
h2-hermonville 27-08-2026 - 22:43 20.7°C / 87.5%
h3-hermonville 27-08-2026 - 22:39 21.2°C / 83%
h4-hermonville 27-08-2026 - 22:38 20.5°C / 84.5%
h1-hermonville 27-08-2026 - 22:33 19.4°C / 92.5%
h2-hermonville 27-08-2026 - 22:33 21°C / 86%
h3-hermonville 27-08-2026 - 22:29 21.2°C / 83.5%
h4-hermonville 27-08-2026 - 22:28 20.9°C / 83%
h1-hermonville 27-08-2026 - 22:23 19.5°C / 92.5%
h3-hermonville 27-08-2026 - 22:19 20.5°C / 86.5%
h1-hermonville 27-08-2026 - 22:13 19.6°C / 92%
h3-hermonville 27-08-2026 - 22:09 20.4°C / 86.5%
h1-hermonville 27-08-2026 - 22:03 19.4°C / 92.5%
h3-hermonville 27-08-2026 - 21:59 20.6°C / 85.5%
h1-hermonville 27-08-2026 - 21:53 19.6°C / 93%
h3-hermonville 27-08-2026 - 21:49 20.5°C / 86.5%
h4-hermonville 27-08-2026 - 21:48 21.6°C / 80%
h2-hermonville 27-08-2026 - 21:43 20.6°C / 92%
h1-hermonville 27-08-2026 - 21:43 20.5°C / 87%
h3-hermonville 27-08-2026 - 21:39 20.7°C / 84.5%
h4-hermonville 27-08-2026 - 21:38 21.5°C / 80.5%
h1-hermonville 27-08-2026 - 21:33 21°C / 84.5%
h2-hermonville 27-08-2026 - 21:33 19.9°C / 93%
h3-hermonville 27-08-2026 - 21:29 20.5°C / 86%
h4-hermonville 27-08-2026 - 21:28 22°C / 77.5%
h1-hermonville 27-08-2026 - 21:23 21.5°C / 81%
h4-hermonville 27-08-2026 - 21:18 22.6°C / 75%
h1-hermonville 27-08-2026 - 21:13 21.9°C / 81%
h2-hermonville 27-08-2026 - 21:13 21.5°C / 82.5%
h3-hermonville 27-08-2026 - 21:09 21.7°C / 80.5%
h4-hermonville 27-08-2026 - 21:08 22.9°C / 75.5%
h1-hermonville 27-08-2026 - 21:03 22.1°C / 80.5%
h2-hermonville 27-08-2026 - 21:03 21.7°C / 81%
h3-hermonville 27-08-2026 - 20:59 22°C / 80%
h4-hermonville 27-08-2026 - 20:58 23°C / 74.5%
h1-hermonville 27-08-2026 - 20:53 22°C / 81%
h2-hermonville 27-08-2026 - 20:53 21.9°C / 82%
h3-hermonville 27-08-2026 - 20:49 22°C / 79%
h4-hermonville 27-08-2026 - 20:48 23.2°C / 74%
h1-hermonville 27-08-2026 - 20:43 21.8°C / 82%
h2-hermonville 27-08-2026 - 20:43 22.4°C / 81%
h3-hermonville 27-08-2026 - 20:39 22.5°C / 79.5%
h4-hermonville 27-08-2026 - 20:38 23.3°C / 74.5%
h1-hermonville 27-08-2026 - 20:33 21.8°C / 83.5%
h2-hermonville 27-08-2026 - 20:33 22.2°C / 82%
h3-hermonville 27-08-2026 - 20:29 22°C / 83.5%
h1-hermonville 27-08-2026 - 20:23 22.3°C / 82%
h2-hermonville 27-08-2026 - 20:23 21.8°C / 84.5%
h3-hermonville 27-08-2026 - 20:19 21.3°C / 85%
h4-hermonville 27-08-2026 - 20:18 23.6°C / 74%
h1-hermonville 27-08-2026 - 20:13 22.3°C / 82%
h2-hermonville 27-08-2026 - 20:13 21.8°C / 83.5%
h3-hermonville 27-08-2026 - 20:09 21.4°C / 84.5%
h4-hermonville 27-08-2026 - 20:08 23.7°C / 73.5%
h1-hermonville 27-08-2026 - 20:03 22.2°C / 83.5%
h2-hermonville 27-08-2026 - 20:03 22°C / 82%
h3-hermonville 27-08-2026 - 19:59 21.6°C / 83%
h4-hermonville 27-08-2026 - 19:58 23.8°C / 73%
h1-hermonville 27-08-2026 - 19:53 21.8°C / 92%
h2-hermonville 27-08-2026 - 19:53 23°C / 78%
h4-hermonville 27-08-2026 - 19:48 24.4°C / 70%
h1-hermonville 27-08-2026 - 19:43 21.7°C / 90.5%
h3-hermonville 27-08-2026 - 19:39 24.8°C / 68%
h1-hermonville 27-08-2026 - 19:33 24.3°C / 69%
h2-hermonville 27-08-2026 - 19:33 25.4°C / 67%
h3-hermonville 27-08-2026 - 19:29 25.2°C / 64%
h4-hermonville 27-08-2026 - 19:28 25.3°C / 63.5%
h2-hermonville 27-08-2026 - 19:23 25.4°C / 63.5%
h4-hermonville 27-08-2026 - 19:18 25.6°C / 62%
h2-hermonville 27-08-2026 - 19:13 25.5°C / 62.5%
h1-hermonville 27-08-2026 - 19:13 25.4°C / 63.5%
h3-hermonville 27-08-2026 - 19:09 25.9°C / 61.5%
h1-hermonville 27-08-2026 - 19:03 25.5°C / 62.5%
h2-hermonville 27-08-2026 - 19:03 25.7°C / 61.5%
h3-hermonville 27-08-2026 - 18:59 26°C / 60.5%
h4-hermonville 27-08-2026 - 18:58 25.8°C / 60.5%
h2-hermonville 27-08-2026 - 18:53 25.8°C / 62%
h3-hermonville 27-08-2026 - 18:49 26°C / 61%
h4-hermonville 27-08-2026 - 18:48 26°C / 60.5%
h1-hermonville 27-08-2026 - 18:43 25.8°C / 62.5%
h2-hermonville 27-08-2026 - 18:43 26.1°C / 62%
h3-hermonville 27-08-2026 - 18:39 26.2°C / 61.5%
h4-hermonville 27-08-2026 - 18:38 26.1°C / 60.5%
h1-hermonville 27-08-2026 - 18:33 26°C / 62%
h2-hermonville 27-08-2026 - 18:33 26°C / 61.5%
h3-hermonville 27-08-2026 - 18:29 26.6°C / 59%
h4-hermonville 27-08-2026 - 18:28 26.4°C / 59%
h1-hermonville 27-08-2026 - 18:23 26.4°C / 61%
h2-hermonville 27-08-2026 - 18:23 26.1°C / 60.5%
h3-hermonville 27-08-2026 - 18:19 26.8°C / 58%
h4-hermonville 27-08-2026 - 18:18 26.6°C / 57%
h1-hermonville 27-08-2026 - 18:13 26.5°C / 58%
h2-hermonville 27-08-2026 - 18:13 26.3°C / 58.5%
h3-hermonville 27-08-2026 - 18:09 27°C / 55.5%
h4-hermonville 27-08-2026 - 18:08 26.7°C / 56.5%
h1-hermonville 27-08-2026 - 18:03 26.8°C / 57.5%
h2-hermonville 27-08-2026 - 18:03 26.9°C / 57%
h3-hermonville 27-08-2026 - 17:59 27.2°C / 56%
h1-hermonville 27-08-2026 - 17:53 27°C / 56.5%
h2-hermonville 27-08-2026 - 17:53 27.2°C / 56%
h3-hermonville 27-08-2026 - 17:49 27.3°C / 55%
h4-hermonville 27-08-2026 - 17:48 27.1°C / 55.5%
h1-hermonville 27-08-2026 - 17:43 27.3°C / 55.5%
h2-hermonville 27-08-2026 - 17:43 27.4°C / 55.5%
h3-hermonville 27-08-2026 - 17:39 27.5°C / 54%
h4-hermonville 27-08-2026 - 17:38 27.3°C / 54.5%
h1-hermonville 27-08-2026 - 17:33 27.5°C / 54.5%
h3-hermonville 27-08-2026 - 17:29 27.6°C / 53.5%
h1-hermonville 27-08-2026 - 17:23 27.6°C / 54.5%
h2-hermonville 27-08-2026 - 17:23 27.5°C / 55.5%
h3-hermonville 27-08-2026 - 17:19 27.8°C / 53.5%
h4-hermonville 27-08-2026 - 17:18 27.4°C / 54.5%
h1-hermonville 27-08-2026 - 17:13 27.8°C / 54%
h2-hermonville 27-08-2026 - 17:13 27.5°C / 54.5%
h3-hermonville 27-08-2026 - 17:09 27.9°C / 53.5%
h4-hermonville 27-08-2026 - 17:08 27.3°C / 54.5%
h2-hermonville 27-08-2026 - 17:03 27.8°C / 54.5%
h3-hermonville 27-08-2026 - 16:59 27.7°C / 53.5%
h4-hermonville 27-08-2026 - 16:58 27.3°C / 54.5%
h2-hermonville 27-08-2026 - 16:53 27.7°C / 54.5%
h3-hermonville 27-08-2026 - 16:49 27.7°C / 54%
h2-hermonville 27-08-2026 - 16:43 27.4°C / 55%
h3-hermonville 27-08-2026 - 16:39 27.6°C / 54%
h4-hermonville 27-08-2026 - 16:38 27.3°C / 54.5%
h2-hermonville 27-08-2026 - 16:33 27.9°C / 54%
h1-hermonville 27-08-2026 - 16:33 27.5°C / 54.5%
h3-hermonville 27-08-2026 - 16:29 27.8°C / 53.5%
h1-hermonville 27-08-2026 - 16:23 27.4°C / 54%
h2-hermonville 27-08-2026 - 16:23 28.1°C / 53%
h3-hermonville 27-08-2026 - 16:19 27.6°C / 52%
h4-hermonville 27-08-2026 - 16:18 27.4°C / 53.5%
h1-hermonville 27-08-2026 - 16:13 27.7°C / 53.5%
h2-hermonville 27-08-2026 - 16:13 28.5°C / 51%
h3-hermonville 27-08-2026 - 16:09 27.9°C / 52%
h1-hermonville 27-08-2026 - 16:03 27.6°C / 53.5%
h2-hermonville 27-08-2026 - 16:03 28.7°C / 51.5%
h3-hermonville 27-08-2026 - 15:59 28°C / 51%
h4-hermonville 27-08-2026 - 15:58 27.5°C / 53%
h1-hermonville 27-08-2026 - 15:53 27.5°C / 55%
h2-hermonville 27-08-2026 - 15:53 28.8°C / 51%
h3-hermonville 27-08-2026 - 15:49 28.1°C / 51.5%
h4-hermonville 27-08-2026 - 15:48 27.5°C / 53.5%
h1-hermonville 27-08-2026 - 15:43 27.5°C / 54%
h3-hermonville 27-08-2026 - 15:39 28°C / 53%
h4-hermonville 27-08-2026 - 15:38 27.4°C / 54%
h1-hermonville 27-08-2026 - 15:33 27.5°C / 55%
h2-hermonville 27-08-2026 - 15:33 28.3°C / 52.5%
h3-hermonville 27-08-2026 - 15:29 27.8°C / 54%
h4-hermonville 27-08-2026 - 15:28 27.3°C / 55%
h1-hermonville 27-08-2026 - 15:23 27.4°C / 56%
h2-hermonville 27-08-2026 - 15:23 27.7°C / 54.5%
h3-hermonville 27-08-2026 - 15:19 27.5°C / 55%
h4-hermonville 27-08-2026 - 15:18 27.1°C / 55%
h1-hermonville 27-08-2026 - 15:13 27.2°C / 56%
h2-hermonville 27-08-2026 - 15:13 27.5°C / 55.5%
h3-hermonville 27-08-2026 - 15:09 27.3°C / 55%
h4-hermonville 27-08-2026 - 15:08 27°C / 55.5%
h1-hermonville 27-08-2026 - 15:03 27.1°C / 56%
h2-hermonville 27-08-2026 - 15:03 27.3°C / 55%
h3-hermonville 27-08-2026 - 14:59 27.2°C / 54.5%
h4-hermonville 27-08-2026 - 14:58 27.1°C / 54.5%
h1-hermonville 27-08-2026 - 14:53 27.1°C / 56%
h2-hermonville 27-08-2026 - 14:53 27.3°C / 56%
h3-hermonville 27-08-2026 - 14:49 27.2°C / 55%
h4-hermonville 27-08-2026 - 14:48 27.1°C / 55.5%
h1-hermonville 27-08-2026 - 14:43 27°C / 58%
h2-hermonville 27-08-2026 - 14:43 27.3°C / 57.5%
h3-hermonville 27-08-2026 - 14:39 27.1°C / 57.5%
h4-hermonville 27-08-2026 - 14:38 27°C / 57%
h1-hermonville 27-08-2026 - 14:33 26.9°C / 58.5%
h2-hermonville 27-08-2026 - 14:33 27.3°C / 57.5%
h3-hermonville 27-08-2026 - 14:29 27.1°C / 57%
h4-hermonville 27-08-2026 - 14:28 27.1°C / 56%
h1-hermonville 27-08-2026 - 14:23 27°C / 59%
h2-hermonville 27-08-2026 - 14:23 27.1°C / 58%
h3-hermonville 27-08-2026 - 14:19 26.9°C / 55.5%
h4-hermonville 27-08-2026 - 14:18 26.9°C / 56.5%
h1-hermonville 27-08-2026 - 14:13 26.8°C / 59%
h2-hermonville 27-08-2026 - 14:13 27°C / 58.5%
h3-hermonville 27-08-2026 - 14:09 27°C / 57.5%
h4-hermonville 27-08-2026 - 14:08 26.9°C / 57.5%
h1-hermonville 27-08-2026 - 14:03 26.7°C / 58.5%
h3-hermonville 27-08-2026 - 13:59 27.1°C / 56%
h1-hermonville 27-08-2026 - 13:53 26.7°C / 58%
h2-hermonville 27-08-2026 - 13:53 27.2°C / 56.5%
h3-hermonville 27-08-2026 - 13:49 27.3°C / 56%
h1-hermonville 27-08-2026 - 13:43 26.6°C / 59.5%
h2-hermonville 27-08-2026 - 13:43 27.1°C / 57.5%
h3-hermonville 27-08-2026 - 13:39 26.9°C / 57.5%
h4-hermonville 27-08-2026 - 13:38 26.6°C / 57.5%
h1-hermonville 27-08-2026 - 13:33 26.6°C / 59.5%
h2-hermonville 27-08-2026 - 13:33 27°C / 57.5%
h3-hermonville 27-08-2026 - 13:29 27°C / 56%
h1-hermonville 27-08-2026 - 13:23 26.3°C / 60%
h2-hermonville 27-08-2026 - 13:23 27°C / 58%
h3-hermonville 27-08-2026 - 13:19 27°C / 56.5%
h4-hermonville 27-08-2026 - 13:18 26.7°C / 57%
h1-hermonville 27-08-2026 - 13:13 26.3°C / 59.5%
h2-hermonville 27-08-2026 - 13:13 26.8°C / 58%
h3-hermonville 27-08-2026 - 13:09 27.1°C / 57%
h1-hermonville 27-08-2026 - 13:03 26.1°C / 60%
h2-hermonville 27-08-2026 - 13:03 26.6°C / 58.5%
h3-hermonville 27-08-2026 - 12:59 26.8°C / 56.5%
h4-hermonville 27-08-2026 - 12:58 26.4°C / 57%
h2-hermonville 27-08-2026 - 12:53 26.5°C / 58%
h1-hermonville 27-08-2026 - 12:53 26.1°C / 60%
h3-hermonville 27-08-2026 - 12:49 26.6°C / 57.5%
h4-hermonville 27-08-2026 - 12:48 26.4°C / 58%
h1-hermonville 27-08-2026 - 12:43 25.9°C / 61%
h2-hermonville 27-08-2026 - 12:43 26.4°C / 59.5%
h3-hermonville 27-08-2026 - 12:39 26.6°C / 58%
h1-hermonville 27-08-2026 - 12:33 25.8°C / 61.5%
h2-hermonville 27-08-2026 - 12:33 26.3°C / 59.5%
h3-hermonville 27-08-2026 - 12:29 26.3°C / 59%
h4-hermonville 27-08-2026 - 12:28 26.1°C / 59%
h1-hermonville 27-08-2026 - 12:23 25.6°C / 62%
h2-hermonville 27-08-2026 - 12:23 26°C / 60.5%
h3-hermonville 27-08-2026 - 12:19 26.1°C / 59%
h4-hermonville 27-08-2026 - 12:18 26.2°C / 59%
h1-hermonville 27-08-2026 - 12:13 25.4°C / 63%
h2-hermonville 27-08-2026 - 12:13 25.9°C / 61.5%
h3-hermonville 27-08-2026 - 12:09 26°C / 60.5%
h4-hermonville 27-08-2026 - 12:08 26.1°C / 60%
h1-hermonville 27-08-2026 - 12:03 25.1°C / 64%
h2-hermonville 27-08-2026 - 12:03 25.6°C / 62.5%
h3-hermonville 27-08-2026 - 11:59 25.5°C / 61.5%
h4-hermonville 27-08-2026 - 11:58 25.9°C / 59.5%
h1-hermonville 27-08-2026 - 11:53 24.7°C / 65.5%
h2-hermonville 27-08-2026 - 11:53 25.1°C / 64%
h3-hermonville 27-08-2026 - 11:49 25.2°C / 63%
h4-hermonville 27-08-2026 - 11:48 26.2°C / 59%
h1-hermonville 27-08-2026 - 11:43 24.4°C / 67%
h2-hermonville 27-08-2026 - 11:43 24.7°C / 65.5%
h3-hermonville 27-08-2026 - 11:39 24.9°C / 64.5%
h4-hermonville 27-08-2026 - 11:38 26.8°C / 58%
h1-hermonville 27-08-2026 - 11:33 24°C / 68%
h2-hermonville 27-08-2026 - 11:33 24.4°C / 67%
h3-hermonville 27-08-2026 - 11:29 24.5°C / 65.5%
h4-hermonville 27-08-2026 - 11:28 28.2°C / 54%
h1-hermonville 27-08-2026 - 11:23 23.6°C / 69%
h2-hermonville 27-08-2026 - 11:23 23.8°C / 68%
h3-hermonville 27-08-2026 - 11:19 24.3°C / 65%
h1-hermonville 27-08-2026 - 11:13 23.3°C / 69%
h3-hermonville 27-08-2026 - 11:09 23.5°C / 68%
h4-hermonville 27-08-2026 - 11:08 27.2°C / 57%
h1-hermonville 27-08-2026 - 11:03 22.6°C / 73.5%
h2-hermonville 27-08-2026 - 11:03 22.6°C / 73%
h3-hermonville 27-08-2026 - 10:59 22.7°C / 71.5%
h1-hermonville 27-08-2026 - 10:53 22.3°C / 73.5%
h2-hermonville 27-08-2026 - 10:53 22.5°C / 73%
h3-hermonville 27-08-2026 - 10:49 22.7°C / 71.5%
h4-hermonville 27-08-2026 - 10:48 23.4°C / 68.5%
h1-hermonville 27-08-2026 - 10:43 22.4°C / 73.5%
h2-hermonville 27-08-2026 - 10:43 22.5°C / 73.5%
h3-hermonville 27-08-2026 - 10:39 22.6°C / 72%
h1-hermonville 27-08-2026 - 10:33 22.4°C / 73%
h3-hermonville 27-08-2026 - 10:29 22.5°C / 72%
h4-hermonville 27-08-2026 - 10:28 23.2°C / 69%
h1-hermonville 27-08-2026 - 10:23 22.2°C / 74.5%
h2-hermonville 27-08-2026 - 10:23 22.3°C / 73.5%
h3-hermonville 27-08-2026 - 10:19 22.5°C / 72.5%
h4-hermonville 27-08-2026 - 10:18 23.5°C / 68%
h1-hermonville 27-08-2026 - 10:13 22.1°C / 75%
h3-hermonville 27-08-2026 - 10:09 22.2°C / 73%
h4-hermonville 27-08-2026 - 10:08 22.7°C / 70.5%
h1-hermonville 27-08-2026 - 10:03 22°C / 75%
h2-hermonville 27-08-2026 - 10:03 22.1°C / 74.5%
h3-hermonville 27-08-2026 - 09:59 22°C / 74%
h4-hermonville 27-08-2026 - 09:58 22.4°C / 71.5%
h1-hermonville 27-08-2026 - 09:53 21.9°C / 75.5%
h2-hermonville 27-08-2026 - 09:53 22°C / 75%
h3-hermonville 27-08-2026 - 09:49 21.8°C / 74.5%
h4-hermonville 27-08-2026 - 09:48 22.3°C / 72%
h2-hermonville 27-08-2026 - 09:43 21.8°C / 74.5%
h3-hermonville 27-08-2026 - 09:39 21.8°C / 74.5%
h4-hermonville 27-08-2026 - 09:38 22.3°C / 70.5%
h1-hermonville 27-08-2026 - 09:33 21.8°C / 75%
h2-hermonville 27-08-2026 - 09:33 21.9°C / 74%
h3-hermonville 27-08-2026 - 09:29 21.8°C / 74%
h4-hermonville 27-08-2026 - 09:28 23°C / 69%
h2-hermonville 27-08-2026 - 09:23 21.7°C / 74.5%
h3-hermonville 27-08-2026 - 09:19 21.7°C / 74.5%
h4-hermonville 27-08-2026 - 09:18 24°C / 65%
h1-hermonville 27-08-2026 - 09:13 21.4°C / 76.5%
h2-hermonville 27-08-2026 - 09:13 21.6°C / 76%
h3-hermonville 27-08-2026 - 09:09 21.3°C / 75.5%
h4-hermonville 27-08-2026 - 09:08 22.7°C / 71%
h1-hermonville 27-08-2026 - 09:03 21.1°C / 78%
h2-hermonville 27-08-2026 - 09:03 21.3°C / 77%
h3-hermonville 27-08-2026 - 08:59 21°C / 77%
h2-hermonville 27-08-2026 - 08:53 21°C / 77.5%
h1-hermonville 27-08-2026 - 08:53 20.8°C / 78.5%
h3-hermonville 27-08-2026 - 08:49 20.9°C / 76.5%
h4-hermonville 27-08-2026 - 08:48 21.3°C / 75%
h1-hermonville 27-08-2026 - 08:43 20.7°C / 79%
h2-hermonville 27-08-2026 - 08:43 20.9°C / 78%
h4-hermonville 27-08-2026 - 08:38 20.9°C / 75.5%
h1-hermonville 27-08-2026 - 08:33 20.5°C / 79.5%
h2-hermonville 27-08-2026 - 08:33 20.8°C / 79%
h3-hermonville 27-08-2026 - 08:29 20.6°C / 80%
h4-hermonville 27-08-2026 - 08:28 20.9°C / 76.5%
h1-hermonville 27-08-2026 - 08:23 20.5°C / 79%
h2-hermonville 27-08-2026 - 08:23 21.2°C / 75%
h3-hermonville 27-08-2026 - 08:19 20.7°C / 78%
h4-hermonville 27-08-2026 - 08:18 20.7°C / 76.5%
h1-hermonville 27-08-2026 - 08:13 20.2°C / 83%
h2-hermonville 27-08-2026 - 08:13 21°C / 78.5%
h3-hermonville 27-08-2026 - 08:09 20.6°C / 79%
h4-hermonville 27-08-2026 - 08:08 20.6°C / 78.5%
h1-hermonville 27-08-2026 - 08:03 20.3°C / 81%
h2-hermonville 27-08-2026 - 08:03 21°C / 77.5%
h3-hermonville 27-08-2026 - 07:59 20.2°C / 80.5%
h4-hermonville 27-08-2026 - 07:58 20.5°C / 78%
h1-hermonville 27-08-2026 - 07:53 20.3°C / 80.5%
h2-hermonville 27-08-2026 - 07:53 20.8°C / 79%
h3-hermonville 27-08-2026 - 07:49 20.1°C / 80.5%
h4-hermonville 27-08-2026 - 07:48 20.2°C / 79%
h1-hermonville 27-08-2026 - 07:43 20.1°C / 81%
h2-hermonville 27-08-2026 - 07:43 20.8°C / 78%
h3-hermonville 27-08-2026 - 07:39 20°C / 80%
h4-hermonville 27-08-2026 - 07:38 20°C / 79.5%
h1-hermonville 27-08-2026 - 07:33 19.9°C / 81%
h2-hermonville 27-08-2026 - 07:33 20.8°C / 77.5%
h3-hermonville 27-08-2026 - 07:29 20.1°C / 79%
h4-hermonville 27-08-2026 - 07:28 20°C / 78.5%
h1-hermonville 27-08-2026 - 07:23 19.8°C / 81.5%
h2-hermonville 27-08-2026 - 07:23 20.9°C / 76.5%
h3-hermonville 27-08-2026 - 07:19 20.2°C / 79%
h4-hermonville 27-08-2026 - 07:18 20.1°C / 78%
h1-hermonville 27-08-2026 - 07:13 19.7°C / 81%
h3-hermonville 27-08-2026 - 07:09 20°C / 79.5%
h1-hermonville 27-08-2026 - 07:03 19.3°C / 83.5%
h2-hermonville 27-08-2026 - 07:03 20.6°C / 78.5%
h2-hermonville 27-08-2026 - 06:23 20°C / 84%
h3-hermonville 27-08-2026 - 06:19 19.5°C / 84.5%
h4-hermonville 27-08-2026 - 06:18 20.6°C / 77%
h2-hermonville 27-08-2026 - 06:13 20.3°C / 81%
h1-hermonville 27-08-2026 - 06:13 19.8°C / 83%
h3-hermonville 27-08-2026 - 06:09 20.4°C / 79.5%
h2-hermonville 27-08-2026 - 06:03 21°C / 77.5%
h1-hermonville 27-08-2026 - 06:03 19.9°C / 82.5%
h2-hermonville 27-08-2026 - 05:53 20.8°C / 78%
h1-hermonville 27-08-2026 - 05:53 19.6°C / 81.5%
h3-hermonville 27-08-2026 - 05:49 20.6°C / 77%
h4-hermonville 27-08-2026 - 05:48 20.8°C / 75.5%
h2-hermonville 27-08-2026 - 05:43 20.8°C / 77.5%
h1-hermonville 27-08-2026 - 05:43 20°C / 80%
h3-hermonville 27-08-2026 - 05:39 20.6°C / 76.5%
h2-hermonville 27-08-2026 - 05:33 20.8°C / 76%
h1-hermonville 27-08-2026 - 05:33 20°C / 78.5%
h3-hermonville 27-08-2026 - 05:29 21°C / 73%
h4-hermonville 27-08-2026 - 05:28 21.3°C / 70%
h1-hermonville 27-08-2026 - 05:23 20.1°C / 76.5%
h3-hermonville 27-08-2026 - 05:19 21°C / 71.5%
h4-hermonville 27-08-2026 - 05:18 21.1°C / 70.5%
h1-hermonville 27-08-2026 - 05:13 20.2°C / 75.5%
h3-hermonville 27-08-2026 - 05:09 20.7°C / 72.5%
h4-hermonville 27-08-2026 - 05:08 21°C / 70.5%
h2-hermonville 27-08-2026 - 05:03 20.8°C / 73.5%
h1-hermonville 27-08-2026 - 05:03 20°C / 76.5%
h3-hermonville 27-08-2026 - 04:59 20.8°C / 72.5%
h4-hermonville 27-08-2026 - 04:58 21°C / 71%
h2-hermonville 27-08-2026 - 04:53 20.5°C / 74.5%
h1-hermonville 27-08-2026 - 04:53 19.9°C / 77.5%
h3-hermonville 27-08-2026 - 04:49 20.7°C / 73.5%
h4-hermonville 27-08-2026 - 04:48 20.8°C / 71.5%
h2-hermonville 27-08-2026 - 04:43 20.4°C / 75.5%
h1-hermonville 27-08-2026 - 04:43 19.8°C / 78%
h3-hermonville 27-08-2026 - 04:39 20.7°C / 73%
h4-hermonville 27-08-2026 - 04:38 20.8°C / 72%
h2-hermonville 27-08-2026 - 04:33 20.1°C / 76%
h1-hermonville 27-08-2026 - 04:33 19.5°C / 78.5%
h3-hermonville 27-08-2026 - 04:29 20.6°C / 73%
h4-hermonville 27-08-2026 - 04:28 20.7°C / 71.5%
h2-hermonville 27-08-2026 - 04:23 20.1°C / 76%
h1-hermonville 27-08-2026 - 04:23 19.3°C / 79.5%
h3-hermonville 27-08-2026 - 04:19 20.1°C / 74.5%
h4-hermonville 27-08-2026 - 04:18 20.7°C / 71.5%
h2-hermonville 27-08-2026 - 04:13 20.2°C / 75%
h1-hermonville 27-08-2026 - 04:13 19.3°C / 79.5%
h3-hermonville 27-08-2026 - 04:09 20.2°C / 74.5%
h4-hermonville 27-08-2026 - 04:08 20.7°C / 72%
h2-hermonville 27-08-2026 - 04:03 20.3°C / 75%
h1-hermonville 27-08-2026 - 04:03 19.3°C / 79.5%
h3-hermonville 27-08-2026 - 03:59 20.5°C / 73%
h4-hermonville 27-08-2026 - 03:58 20.8°C / 72%
h2-hermonville 27-08-2026 - 03:53 20.2°C / 75%
h1-hermonville 27-08-2026 - 03:53 19.4°C / 79.5%
h3-hermonville 27-08-2026 - 03:49 20.9°C / 72%
h4-hermonville 27-08-2026 - 03:48 20.9°C / 70.5%
h2-hermonville 27-08-2026 - 03:43 20.3°C / 74.5%
h1-hermonville 27-08-2026 - 03:43 19.4°C / 78.5%
h3-hermonville 27-08-2026 - 03:39 20.8°C / 72%
h4-hermonville 27-08-2026 - 03:38 21°C / 70.5%
h2-hermonville 27-08-2026 - 03:33 20.2°C / 75%
h1-hermonville 27-08-2026 - 03:33 19.3°C / 79.5%
h3-hermonville 27-08-2026 - 03:29 21°C / 71%
h4-hermonville 27-08-2026 - 03:28 21°C / 69.5%
h2-hermonville 27-08-2026 - 03:23 20.4°C / 74%
h1-hermonville 27-08-2026 - 03:23 19.2°C / 79.5%
h3-hermonville 27-08-2026 - 03:19 21°C / 71%
h2-hermonville 27-08-2026 - 03:13 20.4°C / 74%
h1-hermonville 27-08-2026 - 03:13 19.1°C / 79.5%
h3-hermonville 27-08-2026 - 03:09 21°C / 70.5%
h4-hermonville 27-08-2026 - 03:08 20.8°C / 71%
h2-hermonville 27-08-2026 - 03:03 20.8°C / 72%
h1-hermonville 27-08-2026 - 03:03 19.5°C / 78%
h3-hermonville 27-08-2026 - 02:59 21.1°C / 70.5%
h4-hermonville 27-08-2026 - 02:58 20.7°C / 71.5%
h2-hermonville 27-08-2026 - 02:53 21.2°C / 71%
h1-hermonville 27-08-2026 - 02:53 19.5°C / 78%
h3-hermonville 27-08-2026 - 02:49 21.5°C / 69%
h4-hermonville 27-08-2026 - 02:48 20.7°C / 71.5%
h2-hermonville 27-08-2026 - 02:43 21.3°C / 71%
h1-hermonville 27-08-2026 - 02:43 19.7°C / 77%
h3-hermonville 27-08-2026 - 02:39 21.6°C / 69%
h4-hermonville 27-08-2026 - 02:38 21.2°C / 70%
h2-hermonville 27-08-2026 - 02:33 21.6°C / 70%
h1-hermonville 27-08-2026 - 02:33 20.1°C / 76%
h3-hermonville 27-08-2026 - 02:29 21.4°C / 69.5%
h4-hermonville 27-08-2026 - 02:28 21.4°C / 69%
h2-hermonville 27-08-2026 - 02:23 21.6°C / 70%
h1-hermonville 27-08-2026 - 02:23 20.2°C / 75.5%
h3-hermonville 27-08-2026 - 02:19 21.5°C / 69%
h4-hermonville 27-08-2026 - 02:18 21.6°C / 68.5%
h2-hermonville 27-08-2026 - 02:13 20.9°C / 72.5%
h1-hermonville 27-08-2026 - 02:13 20.1°C / 76%
h3-hermonville 27-08-2026 - 02:09 21.5°C / 69.5%
h4-hermonville 27-08-2026 - 02:08 21.6°C / 67.5%
h2-hermonville 27-08-2026 - 02:03 20.7°C / 73.5%
h1-hermonville 27-08-2026 - 02:03 19.9°C / 77%
h3-hermonville 27-08-2026 - 01:59 21.6°C / 69.5%
h4-hermonville 27-08-2026 - 01:58 21.7°C / 68%
h1-hermonville 27-08-2026 - 01:53 19.9°C / 77%
h3-hermonville 27-08-2026 - 01:49 21.5°C / 69.5%
h4-hermonville 27-08-2026 - 01:48 21.6°C / 68%
h2-hermonville 27-08-2026 - 01:43 21.1°C / 72%
h1-hermonville 27-08-2026 - 01:43 19.9°C / 77%
h3-hermonville 27-08-2026 - 01:39 21.4°C / 70%
h4-hermonville 27-08-2026 - 01:38 21.6°C / 69%
h2-hermonville 27-08-2026 - 01:33 21.2°C / 71.5%
h1-hermonville 27-08-2026 - 01:33 20°C / 76.5%
h3-hermonville 27-08-2026 - 01:29 21.7°C / 69.5%
h4-hermonville 27-08-2026 - 01:28 21.8°C / 68%
h2-hermonville 27-08-2026 - 01:23 21.3°C / 71.5%
h1-hermonville 27-08-2026 - 01:23 20°C / 76%
h3-hermonville 27-08-2026 - 01:19 21.8°C / 69%
h2-hermonville 27-08-2026 - 01:13 21.1°C / 72%
h1-hermonville 27-08-2026 - 01:13 20.1°C / 76%
h3-hermonville 27-08-2026 - 01:09 21.9°C / 68.5%
h4-hermonville 27-08-2026 - 01:08 22°C / 66.5%
h1-hermonville 27-08-2026 - 01:03 20.5°C / 75%
h3-hermonville 27-08-2026 - 00:59 22.1°C / 68%
h4-hermonville 27-08-2026 - 00:58 22.1°C / 66.5%
h2-hermonville 27-08-2026 - 00:53 21.6°C / 71%
h1-hermonville 27-08-2026 - 00:53 21°C / 73.5%
h3-hermonville 27-08-2026 - 00:49 22°C / 68%
h4-hermonville 27-08-2026 - 00:48 22.1°C / 67%
h2-hermonville 27-08-2026 - 00:43 21.7°C / 70.5%
h1-hermonville 27-08-2026 - 00:43 20.9°C / 73.5%
h3-hermonville 27-08-2026 - 00:39 22.2°C / 68%
h4-hermonville 27-08-2026 - 00:38 22°C / 67%
h2-hermonville 27-08-2026 - 00:33 21.7°C / 70.5%
h1-hermonville 27-08-2026 - 00:33 21.1°C / 72.5%
h3-hermonville 27-08-2026 - 00:29 22.2°C / 67.5%
h4-hermonville 27-08-2026 - 00:28 22.3°C / 66.5%
h2-hermonville 27-08-2026 - 00:23 21.6°C / 70.5%
h3-hermonville 27-08-2026 - 00:19 22.2°C / 67.5%
h4-hermonville 27-08-2026 - 00:18 22.4°C / 66%
h2-hermonville 27-08-2026 - 00:13 21.7°C / 70.5%
h1-hermonville 27-08-2026 - 00:13 21°C / 72.5%
h3-hermonville 27-08-2026 - 00:09 22.3°C / 67%
h4-hermonville 27-08-2026 - 00:08 22.5°C / 65.5%
h2-hermonville 27-08-2026 - 00:03 21.6°C / 70.5%
h1-hermonville 27-08-2026 - 00:03 21.1°C / 72.5%